This is the latest recevied weather packets stored in our database for station/object W4KBW. If no packets are shown the sender has not sent any weather packets the latest 1 day(s).
| Time | Temp. | Humidity | Pressure | Rain* | Wind** | Luminosity | Snow |
|---|---|---|---|---|---|---|---|
| 1777993913 | 27.78° C | 100% | 1015.4 hPa | 0 mm | 1.34 m/s, 79° | - | - |
| 1777993194 | 28.33° C | 100% | 1015.4 hPa | 0 mm | 1.79 m/s, 67° | - | - |
| 1777993013 | 28.33° C | 100% | 1015.4 hPa | 0 mm | 1.79 m/s, 67° | - | - |
| 1777992306 | 27.78° C | 100% | 1015.4 hPa | 0 mm | 1.34 m/s, 80° | - | - |
| 1777992083 | 27.78° C | 100% | 1015.4 hPa | 0 mm | 1.34 m/s, 80° | - | - |
| 1777991351 | 27.78° C | 100% | 1015.3 hPa | 0 mm | 1.34 m/s, 72° | - | - |
| 1777991293 | 27.78° C | 100% | 1015.3 hPa | 0 mm | 1.34 m/s, 72° | - | - |
| 1777991153 | 27.78° C | 100% | 1015.3 hPa | 0 mm | 1.34 m/s, 72° | - | - |
| 1777990293 | 26.67° C | 100% | 1015.2 hPa | 0 mm | 1.34 m/s, 89° | - | - |
| 1777990223 | 26.67° C | 100% | 1015.2 hPa | 0 mm | 1.34 m/s, 89° | - | - |
| 1777989605 | 26.67° C | 100% | 1015.3 hPa | 0 mm | 1.34 m/s, 89° | - | - |
| 1777989512 | 26.67° C | 100% | 1015.3 hPa | 0 mm | 1.34 m/s, 89° | - | - |
| 1777989323 | 26.67° C | 100% | 1015.3 hPa | 0 mm | 1.34 m/s, 89° | - | - |
| 1777988639 | 25.56° C | 100% | 1015.3 hPa | 0 mm | 3.58 m/s, 122° | - | - |
| 1777988423 | 25.56° C | 100% | 1015.3 hPa | 0 mm | 3.58 m/s, 122° | - | - |
| 1777987804 | 25.56° C | 100% | 1015.3 hPa | 0 mm | 0.89 m/s, 82° | - | - |
| 1777987753 | 25.56° C | 100% | 1015.3 hPa | 0 mm | 0.89 m/s, 82° | - | - |
| 1777987523 | 25.56° C | 100% | 1015.3 hPa | 0 mm | 0.89 m/s, 82° | - | - |
| 1777986758 | 25° C | 100% | 1015.3 hPa | 0 mm | 1.34 m/s, 107° | - | - |
| 1777986623 | 25° C | 100% | 1015.3 hPa | 0 mm | 1.34 m/s, 107° | - | - |
| 1777985693 | 23.89° C | 100% | 1014.9 hPa | 0 mm | 0.45 m/s, 72° | - | - |
| 1777985014 | 22.78° C | 100% | 1015.1 hPa | 0 mm | 0 m/s | - | - |
| 1777984793 | 22.78° C | 100% | 1015.1 hPa | 0 mm | 0 m/s | - | - |
| 1777983863 | 21.11° C | 100% | 1015 hPa | 0 mm | 0 m/s | - | - |
| 1777982963 | 19.44° C | 100% | 1014.9 hPa | 0 mm | 0 m/s | - | - |
* Rain latest hour (hover to see other rain measurements)
** Current wind speed in m/s (hover to see current wind gust speed)